Time;durP1;ratioP1;P1;durP2;ratioP2;P2;SDS_P1;SDS_P2;PMS_P1;PMS_P2;Temp;Humidity;BMP_temperature;BMP_pressure;BME280_temperature;BME280_humidity;BME280_pressure;Samples;Min_cycle;Max_cycle;Signal;HPM_P1;HPM_P2
2023/08/11 00:01:06;;;;;;;2.90;2.00;;;;;;;25.09;40.63;100848.95;104610;1286;72975;-86
2023/08/11 00:03:32;;;;;;;2.40;2.20;;;;;;;25.09;40.47;100851.17;104376;1283;69258;-86
2023/08/11 00:05:58;;;;;;;4.10;2.20;;;;;;;25.08;40.53;100854.11;104357;1285;69280;-85
2023/08/11 00:08:24;;;;;;;3.20;2.60;;;;;;;25.09;40.46;100864.04;104531;1285;69180;-85
2023/08/11 00:10:51;;;;;;;2.80;2.20;;;;;;;25.08;40.53;100861.58;104318;1289;69302;-86
2023/08/11 00:13:17;;;;;;;2.50;2.00;;;;;;;25.08;40.70;100864.71;104424;1283;69207;-86
2023/08/11 00:15:43;;;;;;;3.30;2.40;;;;;;;25.07;40.72;100856.23;104491;1285;69233;-86
2023/08/11 00:18:09;;;;;;;2.80;2.10;;;;;;;25.07;40.82;100854.23;104499;1287;69220;-85
2023/08/11 00:20:34;;;;;;;2.50;2.00;;;;;;;25.07;40.85;100856.95;104494;1285;69206;-85
2023/08/11 00:23:00;;;;;;;2.80;2.30;;;;;;;25.07;40.81;100849.86;104493;1284;69270;-86
2023/08/11 00:28:06;;;;;;;2.70;2.00;;;;;;;25.05;40.94;100851.66;104291;1286;70354;-86
2023/08/11 00:30:31;;;;;;;4.50;2.30;;;;;;;25.06;40.74;100847.48;104322;1285;69271;-85
2023/08/11 00:32:57;;;;;;;3.20;1.90;;;;;;;25.06;40.71;100850.59;104270;1285;69378;-86
2023/08/11 00:35:23;;;;;;;5.40;2.50;;;;;;;25.05;41.10;100854.92;104326;1285;70115;-86
2023/08/11 00:37:49;;;;;;;3.00;2.10;;;;;;;25.04;40.98;100859.91;104297;1285;69199;-86
2023/08/11 00:40:15;;;;;;;3.20;2.00;;;;;;;25.04;40.93;100860.23;104267;1285;69335;-86
2023/08/11 00:42:40;;;;;;;5.50;2.30;;;;;;;25.04;41.08;100859.15;104391;1284;69201;-86
2023/08/11 00:45:06;;;;;;;2.90;2.00;;;;;;;25.04;41.20;100854.09;104432;1285;69291;-85
2023/08/11 00:47:32;;;;;;;2.60;1.80;;;;;;;25.03;41.15;100850.92;104322;1285;67214;-86
2023/08/11 00:49:58;;;;;;;2.90;2.00;;;;;;;25.03;41.16;100855.96;104246;1285;67798;-85
2023/08/11 00:52:45;;;;;;;2.70;2.20;;;;;;;25.03;41.12;100856.23;104232;1284;69232;-91
2023/08/11 00:55:11;;;;;;;3.10;2.00;;;;;;;25.03;41.02;100859.84;104357;1285;68753;-86
2023/08/11 00:57:37;;;;;;;3.50;2.30;;;;;;;25.02;40.95;100861.70;104240;1285;69184;-85
2023/08/11 01:00:13;;;;;;;2.30;2.00;;;;;;;25.03;41.18;100862.57;104293;1285;69118;-85
2023/08/11 01:02:42;;;;;;;3.00;2.30;;;;;;;25.02;41.40;100857.38;104160;1285;69583;-85
2023/08/11 01:05:11;;;;;;;2.90;2.20;;;;;;;25.02;41.22;100857.68;104119;1285;69267;-85
2023/08/11 01:07:54;;;;;;;2.20;2.00;;;;;;;25.02;41.00;100863.61;104207;1285;69273;-86
2023/08/11 01:10:57;;;;;;;3.90;2.30;;;;;;;25.02;41.15;100863.45;104174;1285;73357;-91
2023/08/11 01:13:38;;;;;;;2.20;2.00;;;;;;;25.01;41.12;100857.39;104207;1285;69189;-91
2023/08/11 01:16:04;;;;;;;3.90;2.00;;;;;;;25.00;41.18;100856.78;104199;1285;69097;-85
2023/08/11 01:18:30;;;;;;;2.40;2.10;;;;;;;25.00;41.17;100853.48;104158;1285;69164;-86
2023/08/11 01:21:06;;;;;;;2.90;1.90;;;;;;;25.01;41.26;100848.43;104014;1285;69219;-85
2023/08/11 01:23:31;;;;;;;2.90;2.00;;;;;;;25.00;41.33;100844.73;104178;1285;73513;-85
2023/08/11 01:25:57;;;;;;;2.20;2.00;;;;;;;25.00;41.31;100848.70;104256;1285;69268;-86
2023/08/11 01:28:24;;;;;;;2.10;1.90;;;;;;;25.00;41.16;100843.03;104405;1290;69289;-92
2023/08/11 01:30:50;;;;;;;4.80;2.10;;;;;;;25.00;41.36;100845.66;104305;1285;69631;-86
2023/08/11 01:33:15;;;;;;;2.40;2.00;;;;;;;25.00;41.20;100843.86;104351;1284;69266;-85
2023/08/11 01:35:41;;;;;;;4.50;2.10;;;;;;;25.00;41.38;100846.80;104259;1287;69148;-86
2023/08/11 01:38:10;;;;;;;3.70;2.00;;;;;;;25.00;41.32;100844.54;104238;1285;69189;-85
2023/08/11 01:40:35;;;;;;;4.00;2.00;;;;;;;24.99;41.45;100849.73;104304;1288;69193;-86
2023/08/11 01:43:02;;;;;;;3.40;2.20;;;;;;;25.00;41.29;100852.86;104209;1285;69228;-86
2023/08/11 01:45:28;;;;;;;2.80;1.90;;;;;;;24.99;41.35;100850.36;103965;1293;69284;-85
2023/08/11 01:47:53;;;;;;;2.80;2.10;;;;;;;24.99;41.52;100847.56;104098;1285;69138;-85
2023/08/11 01:50:19;;;;;;;3.80;2.10;;;;;;;24.99;41.58;100844.02;104172;1287;69239;-86
2023/08/11 01:52:46;;;;;;;4.10;2.10;;;;;;;24.99;41.66;100842.69;104380;1285;69273;-86
2023/08/11 01:55:20;;;;;;;3.20;2.00;;;;;;;24.99;41.62;100848.20;104348;1285;73715;-91
2023/08/11 01:57:46;;;;;;;3.20;2.20;;;;;;;24.98;41.40;100844.29;104497;1284;69153;-86
2023/08/11 02:00:16;;;;;;;4.30;2.40;;;;;;;24.98;41.60;100848.04;104682;1285;69268;-86
2023/08/11 02:02:43;;;;;;;4.20;2.10;;;;;;;24.98;41.56;100845.84;105078;1285;69190;-86
2023/08/11 02:05:11;;;;;;;2.70;2.00;;;;;;;24.98;41.48;100846.09;105303;1285;69203;-86
2023/08/11 02:07:40;;;;;;;2.50;2.10;;;;;;;24.98;41.58;100842.60;104888;1285;73466;-86
2023/08/11 02:10:06;;;;;;;2.70;2.10;;;;;;;24.98;41.37;100845.33;104881;1285;69153;-87
2023/08/11 02:12:32;;;;;;;3.70;2.00;;;;;;;24.98;41.54;100848.16;105084;1285;67005;-86
2023/08/11 02:14:58;;;;;;;3.70;2.20;;;;;;;24.98;41.52;100848.56;105158;1285;69282;-86
2023/08/11 02:17:24;;;;;;;4.50;2.30;;;;;;;24.98;41.54;100852.84;104572;1285;339621;-86
2023/08/11 02:19:50;;;;;;;4.20;2.20;;;;;;;24.98;41.50;100856.95;104945;1285;69289;-86
2023/08/11 02:22:16;;;;;;;3.70;2.30;;;;;;;24.98;41.56;100857.47;105493;1285;69257;-87
2023/08/11 02:24:42;;;;;;;4.40;2.50;;;;;;;24.98;41.56;100857.42;105250;1288;71346;-86
2023/08/11 02:27:09;;;;;;;4.10;2.40;;;;;;;24.98;41.58;100854.69;104783;1288;67109;-87
2023/08/11 02:29:34;;;;;;;3.80;2.10;;;;;;;24.98;41.42;100856.95;104282;1285;74361;-87
2023/08/11 02:32:03;;;;;;;2.50;2.30;;;;;;;24.97;41.66;100855.94;104442;1285;69219;-85
2023/08/11 02:34:30;;;;;;;3.70;2.20;;;;;;;24.98;41.76;100856.17;104354;1289;69145;-87
2023/08/11 02:39:28;;;;;;;5.00;2.60;;;;;;;24.97;41.83;100861.48;104856;1286;69097;-86
2023/08/11 02:41:53;;;;;;;3.70;2.20;;;;;;;24.96;41.91;100858.31;104882;1285;69284;-86
2023/08/11 02:44:19;;;;;;;2.90;2.20;;;;;;;24.96;41.71;100861.96;104718;1287;69270;-86
2023/08/11 02:46:44;;;;;;;4.20;2.80;;;;;;;24.96;41.84;100862.07;104439;1288;69272;-87
2023/08/11 02:49:10;;;;;;;4.30;2.70;;;;;;;24.96;41.86;100868.95;104494;1285;69193;-87
2023/08/11 02:51:35;;;;;;;4.60;2.70;;;;;;;24.95;41.78;100863.20;104181;1285;69255;-86
2023/08/11 02:54:01;;;;;;;2.80;2.60;;;;;;;24.95;41.88;100864.29;104307;1291;69193;-86
2023/08/11 02:56:27;;;;;;;3.40;2.60;;;;;;;24.94;41.86;100867.34;104248;1290;69243;-86
2023/08/11 02:58:56;;;;;;;4.10;2.60;;;;;;;24.92;41.76;100866.16;104207;1290;69106;-86
2023/08/11 03:01:22;;;;;;;4.00;2.90;;;;;;;24.88;41.95;100867.30;104346;1285;69036;-86
2023/08/11 03:03:48;;;;;;;5.20;2.70;;;;;;;24.80;42.17;100870.61;104196;1286;69224;-86
2023/08/11 03:06:14;;;;;;;3.70;2.80;;;;;;;24.72;42.39;100874.13;104236;1289;69254;-86
2023/08/11 03:08:39;;;;;;;4.50;2.80;;;;;;;24.63;42.54;100878.46;104249;1286;69266;-86
2023/08/11 03:11:05;;;;;;;7.10;3.10;;;;;;;24.55;42.62;100878.80;104262;1285;69273;-86
2023/08/11 03:13:30;;;;;;;6.50;3.30;;;;;;;24.48;42.94;100880.55;104361;1289;69273;-85
2023/08/11 03:16:05;;;;;;;5.90;3.10;;;;;;;24.39;43.11;100874.91;104227;1289;69304;-91
2023/08/11 03:18:30;;;;;;;4.30;3.20;;;;;;;24.33;43.54;100870.23;104174;1289;69206;-86
2023/08/11 03:20:56;;;;;;;5.60;3.10;;;;;;;24.26;43.77;100872.13;104270;1289;69286;-86
2023/08/11 03:23:21;;;;;;;7.30;3.20;;;;;;;24.20;43.93;100874.33;104390;1285;69214;-86
2023/08/11 03:25:47;;;;;;;5.30;3.00;;;;;;;24.12;43.98;100879.21;104293;1285;69280;-86
2023/08/11 03:28:12;;;;;;;5.80;3.20;;;;;;;24.00;43.95;100883.55;104240;1291;69260;-87
2023/08/11 03:30:38;;;;;;;5.20;3.50;;;;;;;23.85;44.07;100889.27;104101;1285;70136;-86
2023/08/11 03:33:03;;;;;;;5.80;3.10;;;;;;;23.71;44.26;100890.27;104356;1285;69186;-86
2023/08/11 03:35:33;;;;;;;5.20;3.20;;;;;;;23.58;44.59;100887.70;104250;1289;69266;-86
2023/08/11 03:37:58;;;;;;;7.00;3.40;;;;;;;23.47;44.58;100891.24;104143;1286;72509;-86
2023/08/11 03:40:24;;;;;;;11.00;3.60;;;;;;;23.38;44.77;100887.05;104223;1290;69199;-86
2023/08/11 03:42:57;;;;;;;7.60;3.70;;;;;;;23.31;45.10;100890.54;104470;1286;69255;-91
2023/08/11 03:45:22;;;;;;;6.40;3.30;;;;;;;23.24;45.25;100888.85;104288;1288;69131;-86
2023/08/11 03:47:48;;;;;;;7.00;3.70;;;;;;;23.18;45.35;100886.58;104369;1285;69221;-86
2023/08/11 03:50:13;;;;;;;7.40;3.50;;;;;;;23.16;45.50;100888.80;104301;1285;70340;-85
2023/08/11 03:52:39;;;;;;;6.60;3.40;;;;;;;23.12;45.48;100893.73;104358;1285;69289;-86
2023/08/11 03:55:09;;;;;;;5.80;3.60;;;;;;;23.11;45.59;100896.36;104379;1286;69197;-86
2023/08/11 03:57:37;;;;;;;7.20;4.20;;;;;;;23.10;45.56;100897.75;104233;1289;83111;-86
2023/08/11 04:00:21;;;;;;;5.70;4.20;;;;;;;23.04;45.60;100893.48;104410;1289;69216;-86
2023/08/11 04:02:46;;;;;;;7.50;3.80;;;;;;;23.03;45.67;100896.47;104630;1288;69294;-86
2023/08/11 04:05:12;;;;;;;9.60;3.70;;;;;;;23.01;45.74;100895.20;104492;1289;67692;-86
2023/08/11 04:07:38;;;;;;;9.60;3.90;;;;;;;22.94;45.72;100898.34;104519;1286;69372;-86
2023/08/11 04:10:04;;;;;;;6.60;3.50;;;;;;;22.90;45.82;100899.98;104492;1288;69262;-86
2023/08/11 04:12:31;;;;;;;7.90;3.20;;;;;;;22.88;45.89;100900.55;104334;1284;69616;-86
2023/08/11 04:14:56;;;;;;;9.80;3.50;;;;;;;22.86;45.89;100900.91;104582;1288;69265;-86
2023/08/11 04:17:22;;;;;;;7.50;3.60;;;;;;;22.87;45.97;100904.09;105280;1283;69126;-86
2023/08/11 04:19:48;;;;;;;6.20;3.60;;;;;;;22.87;46.03;100906.04;104723;1283;71445;-86
2023/08/11 04:22:14;;;;;;;4.40;3.10;;;;;;;22.87;46.09;100908.30;104408;1287;69369;-86
2023/08/11 04:24:49;;;;;;;6.50;3.10;;;;;;;22.85;46.06;100905.98;104522;1286;69423;-92
2023/08/11 04:27:14;;;;;;;6.60;3.50;;;;;;;22.81;46.12;100913.23;104362;1288;69122;-86
2023/08/11 04:29:40;;;;;;;6.50;3.30;;;;;;;22.78;46.21;100916.87;104499;1283;70507;-86
2023/08/11 04:32:05;;;;;;;10.10;3.70;;;;;;;22.79;46.25;100922.61;104498;1287;68098;-86
2023/08/11 04:34:31;;;;;;;15.10;3.60;;;;;;;22.80;46.26;100922.61;104651;1283;69189;-86
2023/08/11 04:37:00;;;;;;;7.50;3.30;;;;;;;22.80;46.18;100919.59;104485;1283;70157;-87
2023/08/11 04:39:25;;;;;;;7.40;3.10;;;;;;;22.76;46.13;100916.31;104407;1283;74383;-86
2023/08/11 04:41:51;;;;;;;7.10;3.10;;;;;;;22.74;46.15;100920.98;104404;1285;69219;-86
2023/08/11 04:44:16;;;;;;;7.00;3.20;;;;;;;22.73;46.21;100920.72;104524;1285;69190;-86
2023/08/11 04:46:42;;;;;;;7.40;3.20;;;;;;;22.72;46.15;100920.72;104461;1288;69366;-86
2023/08/11 04:49:07;;;;;;;7.10;3.30;;;;;;;22.71;46.29;100920.31;104590;1288;69201;-86
2023/08/11 04:51:41;;;;;;;6.10;3.20;;;;;;;22.72;46.26;100918.10;104475;1288;69782;-92
2023/08/11 04:54:07;;;;;;;4.00;2.60;;;;;;;22.72;46.25;100918.88;104521;1285;72453;-86
2023/08/11 04:56:32;;;;;;;8.60;3.10;;;;;;;22.73;46.22;100919.65;104699;1286;69214;-86
2023/08/11 04:58:58;;;;;;;7.80;3.30;;;;;;;22.74;46.12;100921.02;104598;1286;71050;-86
2023/08/11 05:01:23;;;;;;;8.80;3.10;;;;;;;22.76;46.07;100920.66;104632;1284;69327;-87
2023/08/11 05:03:53;;;;;;;7.90;3.00;;;;;;;22.78;46.01;100921.70;105246;1283;69630;-87
2023/08/11 05:06:18;;;;;;;9.40;7.60;;;;;;;22.79;45.97;100922.77;106284;1282;69040;-87
2023/08/11 05:08:45;;;;;;;20.60;7.30;;;;;;;22.87;45.90;100920.65;105567;1283;69373;-86
2023/08/11 05:11:11;;;;;;;24.10;6.70;;;;;;;22.97;45.88;100922.81;104736;1288;69225;-86
2023/08/11 05:13:37;;;;;;;29.60;5.60;;;;;;;23.06;45.70;100926.54;104459;1285;69221;-86
2023/08/11 05:16:03;;;;;;;23.30;4.80;;;;;;;23.14;45.57;100916.36;104618;1282;69202;-86
2023/08/11 05:18:38;;;;;;;17.60;4.20;;;;;;;23.21;45.51;100919.24;104563;1283;69195;-92
2023/08/11 05:21:05;;;;;;;18.90;3.90;;;;;;;23.27;45.44;100917.29;104579;1283;69225;-86
2023/08/11 05:23:32;;;;;;;13.80;3.40;;;;;;;23.33;45.35;100913.95;104528;1288;69103;-86
2023/08/11 05:25:57;;;;;;;12.20;3.50;;;;;;;23.38;45.51;100911.45;104696;1282;73360;-87
2023/08/11 05:28:23;;;;;;;11.80;3.50;;;;;;;23.43;45.80;100912.47;104505;1285;67258;-86
2023/08/11 05:30:48;;;;;;;10.60;3.00;;;;;;;23.47;46.02;100914.92;104578;1285;69132;-86
2023/08/11 05:33:14;;;;;;;7.10;2.70;;;;;;;23.50;46.11;100915.11;104439;1284;69217;-86
2023/08/11 05:35:40;;;;;;;10.50;2.90;;;;;;;23.52;46.16;100915.05;104479;1288;69294;-86
2023/08/11 05:38:05;;;;;;;4.70;2.80;;;;;;;23.55;46.18;100915.56;104599;1285;69273;-86
2023/08/11 05:40:31;;;;;;;8.00;3.10;;;;;;;23.58;46.09;100920.42;104684;1288;69179;-86
2023/08/11 05:43:03;;;;;;;5.40;2.80;;;;;;;23.61;46.01;100919.02;104622;1285;69205;-86
2023/08/11 05:45:32;;;;;;;7.10;2.70;;;;;;;23.63;45.90;100923.44;104440;1287;69164;-90
2023/08/11 05:47:58;;;;;;;7.10;2.90;;;;;;;23.66;45.72;100925.84;104487;1282;72607;-86
2023/08/11 05:50:23;;;;;;;11.00;2.70;;;;;;;23.69;45.63;100930.40;104425;1290;69260;-86
2023/08/11 05:52:49;;;;;;;10.50;4.10;;;;;;;23.70;45.43;100933.02;104625;1285;69289;-86
2023/08/11 05:55:15;;;;;;;19.50;14.90;;;;;;;23.72;45.33;100932.23;104588;1285;69275;-86
2023/08/11 05:57:40;;;;;;;14.70;4.80;;;;;;;23.74;45.04;100936.90;104485;1283;69176;-86
2023/08/11 06:00:08;;;;;;;12.50;3.80;;;;;;;23.75;45.03;100940.75;104552;1283;69200;-86
2023/08/11 06:02:35;;;;;;;11.50;4.50;;;;;;;23.71;45.00;100941.69;104641;1282;69246;-86
2023/08/11 06:05:00;;;;;;;11.40;3.60;;;;;;;23.65;45.03;100939.51;104885;1282;69290;-86
2023/08/11 06:07:26;;;;;;;10.30;3.50;;;;;;;23.61;45.05;100938.75;104632;1287;69207;-86
2023/08/11 06:09:51;;;;;;;13.50;3.70;;;;;;;23.57;45.07;100935.69;104664;1285;69272;-86
2023/08/11 06:12:24;;;;;;;7.20;3.30;;;;;;;23.56;45.14;100935.84;104607;1285;68310;-92
2023/08/11 06:14:49;;;;;;;11.90;3.90;;;;;;;23.56;45.25;100937.29;104503;1286;69202;-86
2023/08/11 06:17:15;;;;;;;10.40;3.40;;;;;;;23.58;45.23;100938.98;105006;1283;70267;-86
2023/08/11 06:19:40;;;;;;;8.10;3.20;;;;;;;23.58;45.18;100941.85;105091;1283;69256;-86
2023/08/11 06:22:06;;;;;;;8.60;3.30;;;;;;;23.58;45.29;100944.47;104687;1283;69189;-86
2023/08/11 06:24:32;;;;;;;9.00;3.30;;;;;;;23.55;45.34;100944.52;104697;1283;69258;-86
2023/08/11 06:26:57;;;;;;;6.90;3.40;;;;;;;23.56;45.48;100948.54;104588;1286;69046;-86
2023/08/11 06:29:23;;;;;;;7.60;3.00;;;;;;;23.58;45.50;100951.05;104282;1282;69289;-86
2023/08/11 06:31:48;;;;;;;5.40;3.00;;;;;;;23.61;45.43;100952.62;104497;1283;68927;-86
2023/08/11 06:34:17;;;;;;;9.90;3.40;;;;;;;23.64;45.27;100957.79;104553;1288;69255;-86
2023/08/11 06:36:44;;;;;;;9.70;3.40;;;;;;;23.65;45.23;100952.81;104500;1284;69712;-86
2023/08/11 06:39:10;;;;;;;8.30;3.70;;;;;;;23.65;45.17;100953.33;104570;1283;69263;-87
2023/08/11 06:41:36;;;;;;;7.30;4.10;;;;;;;23.67;45.18;100958.61;104498;1283;69218;-86
2023/08/11 06:44:01;;;;;;;10.10;4.40;;;;;;;23.71;45.19;100959.41;104582;1282;69237;-86
2023/08/11 06:46:27;;;;;;;11.00;4.20;;;;;;;23.75;44.98;100960.23;104594;1285;67408;-86
2023/08/11 06:48:52;;;;;;;8.70;3.80;;;;;;;23.77;44.91;100960.98;104554;1287;69148;-86
2023/08/11 06:51:18;;;;;;;9.00;3.80;;;;;;;23.79;44.78;100962.89;104592;1282;69266;-86
2023/08/11 06:53:43;;;;;;;7.70;3.70;;;;;;;23.78;44.76;100961.20;104498;1285;69224;-86
2023/08/11 06:56:08;;;;;;;4.70;3.00;;;;;;;23.77;44.78;100958.48;104542;1285;69147;-86
2023/08/11 06:58:34;;;;;;;7.50;2.90;;;;;;;23.77;44.63;100956.73;104612;1286;69266;-86
2023/08/11 07:01:00;;;;;;;8.20;2.80;;;;;;;23.77;44.50;100955.54;104694;1283;69323;-86
2023/08/11 07:03:25;;;;;;;5.20;2.80;;;;;;;23.79;44.40;100955.23;104625;1283;69243;-86
2023/08/11 07:05:51;;;;;;;8.70;2.60;;;;;;;23.79;44.10;100957.39;104411;1283;69310;-86
2023/08/11 07:08:18;;;;;;;4.80;2.20;;;;;;;23.80;44.01;100955.95;104454;1288;69266;-86
2023/08/11 07:10:45;;;;;;;7.40;2.60;;;;;;;23.80;43.89;100954.73;104587;1288;69267;-86
2023/08/11 07:13:11;;;;;;;3.90;2.20;;;;;;;23.82;43.58;100956.50;104628;1288;69252;-86
2023/08/11 07:15:40;;;;;;;5.10;2.00;;;;;;;23.85;43.43;100958.07;104665;1285;69285;-87
2023/08/11 07:18:06;;;;;;;8.00;2.00;;;;;;;23.88;43.17;100956.83;104546;1282;69243;-92
2023/08/11 07:20:32;;;;;;;3.20;1.90;;;;;;;23.91;43.13;100956.05;104640;1285;69164;-87
2023/08/11 07:22:58;;;;;;;2.70;1.90;;;;;;;23.95;43.16;100956.19;104421;1285;69272;-86
2023/08/11 07:25:23;;;;;;;5.20;2.30;;;;;;;24.00;42.96;100955.10;104817;1285;69254;-88
2023/08/11 07:27:49;;;;;;;6.10;2.00;;;;;;;24.05;42.88;100954.93;104739;1282;69315;-87
2023/08/11 07:30:14;;;;;;;5.90;2.30;;;;;;;24.09;42.72;100961.18;104631;1283;69266;-87
2023/08/11 07:32:41;;;;;;;10.00;2.70;;;;;;;24.14;42.56;100957.15;104603;1282;69226;-88
2023/08/11 07:35:07;;;;;;;7.80;2.30;;;;;;;24.18;42.49;100956.20;104740;1286;69276;-86
2023/08/11 07:37:32;;;;;;;6.30;2.40;;;;;;;24.22;42.35;100956.63;104686;1287;69215;-86
2023/08/11 07:39:58;;;;;;;5.50;2.50;;;;;;;24.27;42.10;100957.29;104762;1285;69193;-87
2023/08/11 07:42:24;;;;;;;6.40;2.40;;;;;;;24.31;42.24;100962.02;105228;1286;69202;-86
2023/08/11 07:47:32;;;;;;;4.80;2.40;;;;;;;24.39;41.98;100957.61;104169;1289;74464;-85
2023/08/11 07:49:57;;;;;;;4.70;2.50;;;;;;;24.43;41.69;100953.57;104216;1290;69191;-85
2023/08/11 07:52:23;;;;;;;5.60;2.40;;;;;;;24.45;41.67;100952.67;104328;1289;69254;-86
2023/08/11 07:54:48;;;;;;;5.90;2.60;;;;;;;24.47;41.34;100952.41;104352;1290;69276;-85
2023/08/11 07:57:14;;;;;;;3.10;2.30;;;;;;;24.46;41.14;100952.11;104372;1290;69271;-85
2023/08/11 07:59:39;;;;;;;5.20;2.50;;;;;;;24.47;40.72;100948.61;104218;1286;69680;-85
2023/08/11 08:02:05;;;;;;;6.80;2.70;;;;;;;24.46;40.66;100942.59;104149;1293;69328;-85
2023/08/11 08:04:31;;;;;;;9.30;3.00;;;;;;;24.46;40.60;100944.33;105045;1287;69241;-85
2023/08/11 08:06:57;;;;;;;5.60;2.60;;;;;;;24.47;40.14;100942.94;104583;1286;67081;-86
2023/08/11 08:09:22;;;;;;;3.90;2.50;;;;;;;24.47;40.26;100944.85;104334;1285;69285;-86
2023/08/11 08:14:21;;;;;;;7.20;3.50;;;;;;;24.48;39.86;100944.02;104416;1282;69274;-86
2023/08/11 08:16:47;;;;;;;5.50;3.10;;;;;;;24.48;39.75;100946.08;104365;1288;69406;-87
2023/08/11 08:19:14;;;;;;;5.20;2.60;;;;;;;24.48;39.68;100948.09;104432;1285;69280;-87
2023/08/11 08:21:40;;;;;;;3.70;2.80;;;;;;;24.48;39.64;100946.64;104378;1290;69340;-87
2023/08/11 08:24:07;;;;;;;5.40;2.80;;;;;;;24.48;39.45;100944.94;104315;1286;69263;-88
2023/08/11 08:26:33;;;;;;;67.60;60.40;;;;;;;24.47;39.31;100942.98;104255;1285;69240;-87
2023/08/11 08:28:59;;;;;;;85.80;76.60;;;;;;;24.49;39.35;100944.63;104500;1288;69266;-85
2023/08/11 08:31:26;;;;;;;120.80;104.60;;;;;;;24.51;39.40;100944.71;104340;1287;69372;-85
2023/08/11 08:33:52;;;;;;;103.60;92.50;;;;;;;24.53;39.22;100943.00;104458;1285;69113;-84
2023/08/11 08:36:17;;;;;;;77.50;69.20;;;;;;;24.55;39.31;100935.58;104663;1293;69116;-86
2023/08/11 08:41:23;;;;;;;57.90;51.70;;;;;;;24.60;39.18;100938.78;104679;1287;73526;-86
2023/08/11 08:43:50;;;;;;;47.90;42.70;;;;;;;24.62;39.38;100937.27;104566;1285;67983;-86
2023/08/11 08:46:16;;;;;;;42.70;38.30;;;;;;;24.64;39.18;100936.45;104347;1285;69091;-86
2023/08/11 08:48:44;;;;;;;42.10;37.60;;;;;;;24.65;39.41;100934.22;104424;1285;69162;-86
2023/08/11 08:51:10;;;;;;;39.60;35.40;;;;;;;24.67;39.37;100931.36;104528;1285;69164;-86
2023/08/11 08:56:09;;;;;;;36.70;32.00;;;;;;;24.71;39.44;100925.39;104929;1282;69104;-86
2023/08/11 08:58:35;;;;;;;35.80;32.00;;;;;;;24.73;39.35;100926.98;104529;1287;70469;-85
2023/08/11 09:01:01;;;;;;;35.40;31.70;;;;;;;24.75;39.37;100927.48;104881;1282;69244;-86
2023/08/11 09:03:30;;;;;;;31.70;28.20;;;;;;;24.76;39.53;100928.03;104668;1282;69173;-85
2023/08/11 09:05:57;;;;;;;34.00;30.40;;;;;;;24.79;39.43;100931.11;104732;1282;73707;-85
2023/08/11 09:08:23;;;;;;;32.20;28.80;;;;;;;24.81;39.57;100930.25;104580;1282;69226;-85
2023/08/11 09:10:49;;;;;;;20.40;17.20;;;;;;;24.84;39.66;100932.60;104897;1282;69370;-85
2023/08/11 09:13:17;;;;;;;23.60;21.20;;;;;;;24.85;39.50;100934.54;104734;1283;69252;-85
2023/08/11 09:15:43;;;;;;;18.90;16.70;;;;;;;24.85;39.42;100932.90;104766;1282;69142;-85
2023/08/11 09:18:16;;;;;;;14.10;11.90;;;;;;;24.87;39.39;100933.29;104630;1282;69367;-85
2023/08/11 09:20:46;;;;;;;13.80;11.10;;;;;;;24.88;39.38;100934.94;104728;1282;70401;-91
2023/08/11 09:23:11;;;;;;;9.40;7.90;;;;;;;24.89;39.21;100937.55;104965;1282;69333;-85
2023/08/11 09:25:37;;;;;;;10.00;6.70;;;;;;;24.89;39.00;100938.57;105324;1281;69229;-85
2023/08/11 09:28:03;;;;;;;7.60;5.10;;;;;;;24.89;38.82;100939.15;106106;1282;69196;-86
2023/08/11 09:30:34;;;;;;;73.80;65.80;;;;;;;24.90;38.66;100934.72;106095;1282;69301;-86
2023/08/11 09:33:03;;;;;;;45.80;40.90;;;;;;;24.92;38.39;100932.94;105747;1291;67071;-86
2023/08/11 09:38:09;;;;;;;20.90;18.70;;;;;;;24.95;38.24;100930.48;104921;1285;69255;-85
2023/08/11 09:40:35;;;;;;;28.50;22.20;;;;;;;24.97;38.17;100927.29;104467;1290;69252;-85
2023/08/11 09:43:00;;;;;;;31.60;28.20;;;;;;;24.98;38.20;100922.90;104852;1284;69258;-86
2023/08/11 09:45:26;;;;;;;27.00;21.70;;;;;;;24.99;37.85;100929.42;105271;1285;69190;-86
2023/08/11 09:47:51;;;;;;;13.10;11.80;;;;;;;25.01;37.90;100926.89;104995;1284;69189;-86
2023/08/11 09:50:17;;;;;;;7.50;5.90;;;;;;;25.02;37.80;100932.13;105278;1285;69192;-86
2023/08/11 09:52:42;;;;;;;7.00;6.10;;;;;;;25.03;37.95;100924.90;105249;1283;69279;-86
2023/08/11 09:55:12;;;;;;;5.70;4.60;;;;;;;25.04;37.86;100923.30;105325;1287;69267;-86
2023/08/11 09:57:39;;;;;;;5.10;4.60;;;;;;;25.04;37.89;100920.65;104676;1282;69155;-86
2023/08/11 10:00:11;;;;;;;7.10;5.00;;;;;;;25.06;37.77;100920.96;104968;1285;69209;-87
2023/08/11 10:02:37;;;;;;;6.80;3.60;;;;;;;25.07;37.89;100918.08;106359;1282;66948;-87
2023/08/11 10:05:04;;;;;;;4.20;3.60;;;;;;;25.09;37.49;100910.64;106607;1282;66938;-86
2023/08/11 10:07:35;;;;;;;6.20;3.80;;;;;;;25.10;37.41;100909.65;106397;1285;69172;-87
2023/08/11 10:10:16;;;;;;;4.10;3.60;;;;;;;25.12;37.60;100911.02;105709;1282;67478;-86
2023/08/11 10:13:06;;;;;;;5.20;3.20;;;;;;;25.14;37.60;100908.38;104812;1285;69206;-86
2023/08/11 10:15:31;;;;;;;4.90;3.70;;;;;;;25.15;37.43;100901.73;104551;1287;69434;-86
2023/08/11 10:17:57;;;;;;;4.90;3.40;;;;;;;25.16;37.33;100905.94;104751;1282;69324;-86
2023/08/11 10:20:32;;;;;;;5.60;3.30;;;;;;;25.16;37.16;100909.83;106194;1282;69179;-91
2023/08/11 10:22:57;;;;;;;5.50;2.90;;;;;;;25.16;37.33;100907.93;106412;1285;68985;-86
2023/08/11 10:25:24;;;;;;;5.80;3.00;;;;;;;25.16;37.23;100901.77;105949;1283;67228;-86
2023/08/11 10:27:49;;;;;;;4.90;3.00;;;;;;;25.16;37.34;100897.79;106149;1282;67085;-86
2023/08/11 10:30:15;;;;;;;6.90;2.80;;;;;;;25.17;37.14;100897.93;106224;1285;67029;-86
2023/08/11 10:32:40;;;;;;;3.80;2.70;;;;;;;25.18;37.06;100899.30;106241;1282;67724;-87
2023/08/11 10:35:07;;;;;;;4.20;2.70;;;;;;;25.19;37.03;100899.66;104338;1285;69211;-86
2023/08/11 10:37:32;;;;;;;7.50;3.00;;;;;;;25.20;37.03;100898.63;104591;1284;69146;-86
2023/08/11 10:40:05;;;;;;;4.70;2.80;;;;;;;25.19;36.92;100900.69;104365;1283;70460;-86
2023/08/11 10:42:31;;;;;;;3.70;2.90;;;;;;;25.19;36.90;100900.95;104307;1285;69352;-86
2023/08/11 10:45:18;;;;;;;6.70;2.70;;;;;;;25.19;36.88;100897.81;104363;1290;69010;-86
2023/08/11 10:47:50;;;;;;;4.60;2.70;;;;;;;25.19;36.82;100896.31;104565;1283;69141;-86
2023/08/11 10:50:29;;;;;;;4.90;3.20;;;;;;;25.19;36.65;100897.59;104533;1283;69020;-92
2023/08/11 10:53:06;;;;;;;5.90;3.00;;;;;;;25.19;36.79;100898.68;104341;1288;73494;-86
2023/08/11 10:55:38;;;;;;;5.50;3.10;;;;;;;25.20;36.81;100894.81;104578;1283;69074;-86
2023/08/11 10:58:16;;;;;;;6.20;3.10;;;;;;;25.21;36.60;100893.83;104286;1285;69179;-86
2023/08/11 11:00:42;;;;;;;7.00;2.80;;;;;;;25.21;36.36;100893.16;104438;1285;69052;-86
2023/08/11 11:03:08;;;;;;;4.40;2.70;;;;;;;25.23;36.32;100893.91;104395;1282;69307;-86
2023/08/11 11:05:33;;;;;;;3.50;2.40;;;;;;;25.24;36.38;100892.61;104832;1285;69266;-86
2023/08/11 11:07:59;;;;;;;5.70;3.20;;;;;;;25.26;36.25;100892.70;104689;1283;69721;-86
2023/08/11 11:10:24;;;;;;;5.10;3.10;;;;;;;25.28;36.25;100890.45;104982;1285;69266;-86
2023/08/11 11:12:50;;;;;;;5.00;2.60;;;;;;;25.28;36.35;100886.68;104877;1285;69045;-87
2023/08/11 11:15:15;;;;;;;6.50;2.60;;;;;;;25.30;36.30;100882.60;105063;1282;69327;-87
2023/08/11 11:24:15;;;;;;;4.50;2.40;;;;;;;25.30;35.93;100881.98;104799;1281;69106;-86
2023/08/11 11:26:42;;;;;;;4.30;2.60;;;;;;;25.31;35.80;100881.45;104566;1283;69132;-85
2023/08/11 11:29:07;;;;;;;6.70;3.10;;;;;;;25.31;35.69;100878.52;104677;1283;73577;-86
2023/08/11 11:31:35;;;;;;;6.10;2.80;;;;;;;25.31;35.73;100881.20;104798;1282;69320;-86
2023/08/11 11:34:01;;;;;;;4.30;2.60;;;;;;;25.32;35.74;100883.97;105500;1288;69263;-86
2023/08/11 11:36:27;;;;;;;3.40;2.50;;;;;;;25.33;35.74;100881.54;104458;1283;67451;-86
2023/08/11 11:39:27;;;;;;;6.00;2.80;;;;;;;25.34;35.74;100883.02;104491;1282;69328;-86